Hooper Bay Airport Hooper Bay US
ICAO: PAHP
IATA:
Category: Medium
Scheduled Services:

Elevation: 13 ft
TransAlt. 18000 ft.

Airport Communications:
AWOS 3:135.1
CTAF:123
KENAI RDO:122.4
TWEB:115.2

PAHP Zoom In..

If Map Doesn't Load, Click Here

Runways:

(A) RW 13 length 3300 ft width 75 ft
---- / hdg 136

(B) RW 31 length 3300 ft width 75 ft
---- / hdg 316

Location; PAHP
Day. 26 / Time. 08.56 Zulu
* Altimeter: 30.27
* Temperature: 08° c. 46.4°f.
* Wind from: 070° Speed 03 kn.
Dewpoint: 05° c.
Visibility: 10 Statute Miles.
Clouds: Overcast 4400 ft.

PAHP 260856Z AUTO 07003KT 10SM OVC044 08/05 A3027 RMK AO2 SLP289 T00780050 400940078 51014


Wind From 070°
Speed 03 kn.

 
 
jpsmedia.com for Web Design worldairports.se 2018   terms of use